Charleston, SC (29413)

2:15 PM EDT on September 01, 2015 (GMT -0400)
Downtown Charleston | | Change Station
CLOSE
Current Station
Personal Weather Station
Location: Charleston, SC
Elevation: 20 ft
Nearby Weather Stations

Elev 20 ft 32.79 °N, 79.95 °W | Updated 9 seconds ago

Partly Cloudy
Partly Cloudy
87.1 °F
Feels Like 95 °F
N
5.6
Wind Variable Wind from South
Gusts 7.4 mph

Today
High -- | Low -- °F
--% Chance of Precip.
Yesterday
High -- | Low -- °F
Precip. -- in
6:54 AM 7:44 PM
Waning Gibbous, 87% visible
Pressure 30.09 in
Visibility 10.0 miles
Clouds Scattered Clouds 3200 ft
Scattered Clouds 4100 ft
Mostly Cloudy 4800 ft
Heat Index 95 °F
Dew Point 74 °F
Humidity 65%
Rainfall 0.00 in
Snow Depth Not available.
UV 7.0 out of 12
Pollen 7.30 out of 12
Air Quality Not available.
Flu Activity Not available.
METAR KJZI 011755Z AUTO 00000KT 10SM SCT032 SCT041 BKN048 30/24 A3009 RMK AO2 LTG DSNT S
Pressure 30.09 in
Visibility 10.0 miles
Clouds Scattered Clouds 3200 ft
Scattered Clouds 4100 ft
Mostly Cloudy 4800 ft
Heat Index 95 °F
Dew Point 74 °F
Humidity 65%
Rainfall 0.00 in
Snow Depth Not available.
UV 7.0 out of 12
Pollen 7.30 out of 12
Air Quality Not available.
Flu Activity Not available.
METAR KJZI 011755Z AUTO 00000KT 10SM SCT032 SCT041 BKN048 30/24 A3009 RMK AO2 LTG DSNT S

10-Day Weather Forecast

×

Almanac

Astronomy

Sep. 01, 2015 Rise Set
Actual Time
Civil Twilight
Nautical Twilight
Astronomical Twilight
Moon
Length of Visible Light
Length of Day
Tomorrow will be .
, % of the Moon is Illuminated

Today's Extremes

State Highs State Lows

Community

WunderPhotos

Upload Photos

1,851,592 photos uploaded!

WunderBlogs® & News

Nearby

Air Quality

  Air Quality AQ Index Pollutant
Not available.

Snow Depth

Station Depth Elevation

Earthquake Activity

City Distance Mag. Time & Date
Minimum magnitude displayed is 2.5.

Coastal Water Temperatures

Place Temperature

Stations

Nearby Weather Stations

Station Location Temp. Windchill Dew Point Humidity Wind Precip. Elev Updated Type